sensor_id;sensor_type;location;lat;lon;timestamp;temperature;humidity
5796;DHT22;2924;51.458;7.046;2024-03-02T00:01:07;7.40;99.90
5796;DHT22;2924;51.458;7.046;2024-03-02T00:03:33;7.40;99.90
5796;DHT22;2924;51.458;7.046;2024-03-02T00:05:59;7.40;99.90
5796;DHT22;2924;51.458;7.046;2024-03-02T00:08:25;7.70;99.90
5796;DHT22;2924;51.458;7.046;2024-03-02T00:10:52;7.70;99.90
5796;DHT22;2924;51.458;7.046;2024-03-02T00:13:22;7.60;99.90
5796;DHT22;2924;51.458;7.046;2024-03-02T00:15:55;7.60;99.90
5796;DHT22;2924;51.458;7.046;2024-03-02T00:18:30;7.80;99.90
5796;DHT22;2924;51.458;7.046;2024-03-02T00:20:56;7.80;99.90
5796;DHT22;2924;51.458;7.046;2024-03-02T00:23:23;7.90;99.90
5796;DHT22;2924;51.458;7.046;2024-03-02T00:25:51;7.90;99.90
5796;DHT22;2924;51.458;7.046;2024-03-02T00:28:34;7.90;99.90
5796;DHT22;2924;51.458;7.046;2024-03-02T00:31:09;7.90;99.90
5796;DHT22;2924;51.458;7.046;2024-03-02T00:33:42;8.00;99.90
5796;DHT22;2924;51.458;7.046;2024-03-02T00:36:11;8.10;99.90
5796;DHT22;2924;51.458;7.046;2024-03-02T00:38:47;8.00;99.90
5796;DHT22;2924;51.458;7.046;2024-03-02T00:41:24;7.90;99.90
5796;DHT22;2924;51.458;7.046;2024-03-02T00:46:19;7.90;99.90
5796;DHT22;2924;51.458;7.046;2024-03-02T00:48:51;8.00;99.90
5796;DHT22;2924;51.458;7.046;2024-03-02T00:51:18;7.90;99.90
5796;DHT22;2924;51.458;7.046;2024-03-02T00:53:43;8.00;99.90
5796;DHT22;2924;51.458;7.046;2024-03-02T00:56:11;8.00;99.90
5796;DHT22;2924;51.458;7.046;2024-03-02T00:58:37;8.00;99.90
5796;DHT22;2924;51.458;7.046;2024-03-02T01:01:03;8.10;99.90
5796;DHT22;2924;51.458;7.046;2024-03-02T01:03:30;8.20;99.90
5796;DHT22;2924;51.458;7.046;2024-03-02T01:05:56;8.20;99.90
5796;DHT22;2924;51.458;7.046;2024-03-02T01:08:22;8.20;99.90
5796;DHT22;2924;51.458;7.046;2024-03-02T01:10:47;8.30;99.90
5796;DHT22;2924;51.458;7.046;2024-03-02T01:13:13;8.30;99.90
5796;DHT22;2924;51.458;7.046;2024-03-02T01:15:38;8.40;99.90
5796;DHT22;2924;51.458;7.046;2024-03-02T01:18:04;8.40;99.90
5796;DHT22;2924;51.458;7.046;2024-03-02T01:20:30;8.30;99.90
5796;DHT22;2924;51.458;7.046;2024-03-02T01:22:55;8.40;99.90
5796;DHT22;2924;51.458;7.046;2024-03-02T01:25:21;8.50;99.90
5796;DHT22;2924;51.458;7.046;2024-03-02T01:27:46;8.60;99.90
5796;DHT22;2924;51.458;7.046;2024-03-02T01:30:12;8.60;99.90
5796;DHT22;2924;51.458;7.046;2024-03-02T01:32:38;8.60;99.90
5796;DHT22;2924;51.458;7.046;2024-03-02T01:35:04;8.70;99.90
5796;DHT22;2924;51.458;7.046;2024-03-02T01:37:30;8.70;99.90
5796;DHT22;2924;51.458;7.046;2024-03-02T01:39:56;8.70;99.90
5796;DHT22;2924;51.458;7.046;2024-03-02T01:42:21;8.80;99.90
5796;DHT22;2924;51.458;7.046;2024-03-02T01:44:47;8.80;99.90
5796;DHT22;2924;51.458;7.046;2024-03-02T01:47:13;8.80;99.90
5796;DHT22;2924;51.458;7.046;2024-03-02T01:49:39;8.80;99.90
5796;DHT22;2924;51.458;7.046;2024-03-02T01:52:06;8.70;99.90
5796;DHT22;2924;51.458;7.046;2024-03-02T01:54:32;8.70;99.90
5796;DHT22;2924;51.458;7.046;2024-03-02T01:56:58;8.70;99.90
5796;DHT22;2924;51.458;7.046;2024-03-02T01:59:24;8.60;99.90
5796;DHT22;2924;51.458;7.046;2024-03-02T02:01:50;8.50;99.90
5796;DHT22;2924;51.458;7.046;2024-03-02T02:04:16;8.50;99.90
5796;DHT22;2924;51.458;7.046;2024-03-02T02:06:42;8.30;99.90
5796;DHT22;2924;51.458;7.046;2024-03-02T02:09:08;8.30;99.90
5796;DHT22;2924;51.458;7.046;2024-03-02T02:11:34;8.30;99.90
5796;DHT22;2924;51.458;7.046;2024-03-02T02:13:59;8.30;99.90
5796;DHT22;2924;51.458;7.046;2024-03-02T02:16:25;8.20;99.90
5796;DHT22;2924;51.458;7.046;2024-03-02T02:18:51;8.20;99.90
5796;DHT22;2924;51.458;7.046;2024-03-02T02:21:16;8.10;99.90
5796;DHT22;2924;51.458;7.046;2024-03-02T02:23:42;8.20;99.90
5796;DHT22;2924;51.458;7.046;2024-03-02T02:26:12;8.10;99.90
5796;DHT22;2924;51.458;7.046;2024-03-02T02:28:37;8.20;99.90
5796;DHT22;2924;51.458;7.046;2024-03-02T02:31:03;8.20;99.90
5796;DHT22;2924;51.458;7.046;2024-03-02T02:33:29;8.40;99.90
5796;DHT22;2924;51.458;7.046;2024-03-02T02:35:54;8.40;99.90
5796;DHT22;2924;51.458;7.046;2024-03-02T02:38:20;8.50;99.90
5796;DHT22;2924;51.458;7.046;2024-03-02T02:40:45;8.40;99.90
5796;DHT22;2924;51.458;7.046;2024-03-02T02:43:12;8.50;99.90
5796;DHT22;2924;51.458;7.046;2024-03-02T02:45:38;8.50;99.90
5796;DHT22;2924;51.458;7.046;2024-03-02T02:48:04;8.40;99.90
5796;DHT22;2924;51.458;7.046;2024-03-02T02:50:30;8.40;99.90
5796;DHT22;2924;51.458;7.046;2024-03-02T02:52:56;8.50;99.90
5796;DHT22;2924;51.458;7.046;2024-03-02T02:55:21;8.50;99.90
5796;DHT22;2924;51.458;7.046;2024-03-02T02:57:47;8.50;99.90
5796;DHT22;2924;51.458;7.046;2024-03-02T03:00:14;8.50;99.90
5796;DHT22;2924;51.458;7.046;2024-03-02T03:02:47;8.50;99.90
5796;DHT22;2924;51.458;7.046;2024-03-02T03:05:14;8.60;99.90
5796;DHT22;2924;51.458;7.046;2024-03-02T03:07:40;8.50;99.90
5796;DHT22;2924;51.458;7.046;2024-03-02T03:10:07;8.50;99.90
5796;DHT22;2924;51.458;7.046;2024-03-02T03:12:36;8.50;99.90
5796;DHT22;2924;51.458;7.046;2024-03-02T03:15:03;8.60;99.90
5796;DHT22;2924;51.458;7.046;2024-03-02T03:17:29;8.60;99.90
5796;DHT22;2924;51.458;7.046;2024-03-02T03:19:55;8.60;99.90
5796;DHT22;2924;51.458;7.046;2024-03-02T03:22:21;8.60;99.90
5796;DHT22;2924;51.458;7.046;2024-03-02T03:24:46;8.60;99.90
5796;DHT22;2924;51.458;7.046;2024-03-02T03:27:12;8.60;99.90
5796;DHT22;2924;51.458;7.046;2024-03-02T03:29:37;8.50;99.90
5796;DHT22;2924;51.458;7.046;2024-03-02T03:32:03;8.60;99.90
5796;DHT22;2924;51.458;7.046;2024-03-02T03:34:32;8.60;99.90
5796;DHT22;2924;51.458;7.046;2024-03-02T03:36:58;8.60;99.90
5796;DHT22;2924;51.458;7.046;2024-03-02T03:39:23;8.60;99.90
5796;DHT22;2924;51.458;7.046;2024-03-02T03:41:49;8.60;99.90
5796;DHT22;2924;51.458;7.046;2024-03-02T03:44:14;8.70;99.90
5796;DHT22;2924;51.458;7.046;2024-03-02T03:46:40;8.70;99.90
5796;DHT22;2924;51.458;7.046;2024-03-02T03:49:05;8.70;99.90
5796;DHT22;2924;51.458;7.046;2024-03-02T03:51:31;8.80;99.90
5796;DHT22;2924;51.458;7.046;2024-03-02T03:53:57;8.90;99.90
5796;DHT22;2924;51.458;7.046;2024-03-02T03:56:22;8.90;99.90
5796;DHT22;2924;51.458;7.046;2024-03-02T03:58:48;8.80;99.90
5796;DHT22;2924;51.458;7.046;2024-03-02T04:01:13;8.70;99.90
5796;DHT22;2924;51.458;7.046;2024-03-02T04:03:39;8.70;99.90
5796;DHT22;2924;51.458;7.046;2024-03-02T04:06:04;8.70;99.90
5796;DHT22;2924;51.458;7.046;2024-03-02T04:08:30;8.70;99.90
5796;DHT22;2924;51.458;7.046;2024-03-02T04:10:56;8.80;99.90
5796;DHT22;2924;51.458;7.046;2024-03-02T04:13:21;8.80;99.90
5796;DHT22;2924;51.458;7.046;2024-03-02T04:15:47;8.70;99.90
5796;DHT22;2924;51.458;7.046;2024-03-02T04:18:12;8.70;99.90
5796;DHT22;2924;51.458;7.046;2024-03-02T04:20:38;8.70;99.90
5796;DHT22;2924;51.458;7.046;2024-03-02T04:23:04;8.60;99.90
5796;DHT22;2924;51.458;7.046;2024-03-02T04:25:29;8.50;99.90
5796;DHT22;2924;51.458;7.046;2024-03-02T04:27:55;8.40;99.90
5796;DHT22;2924;51.458;7.046;2024-03-02T04:30:20;8.30;99.90
5796;DHT22;2924;51.458;7.046;2024-03-02T04:32:46;8.30;99.90
5796;DHT22;2924;51.458;7.046;2024-03-02T04:35:12;8.30;99.90
5796;DHT22;2924;51.458;7.046;2024-03-02T04:37:38;8.30;99.90
5796;DHT22;2924;51.458;7.046;2024-03-02T04:40:04;8.30;99.90
5796;DHT22;2924;51.458;7.046;2024-03-02T04:42:34;8.20;99.90
5796;DHT22;2924;51.458;7.046;2024-03-02T04:45:00;8.10;99.90
5796;DHT22;2924;51.458;7.046;2024-03-02T04:47:25;8.00;99.90
5796;DHT22;2924;51.458;7.046;2024-03-02T04:49:51;7.80;99.90
5796;DHT22;2924;51.458;7.046;2024-03-02T04:52:16;7.70;99.90
5796;DHT22;2924;51.458;7.046;2024-03-02T04:54:42;7.60;99.90
5796;DHT22;2924;51.458;7.046;2024-03-02T04:57:27;7.60;99.90
5796;DHT22;2924;51.458;7.046;2024-03-02T04:59:52;7.50;99.90
5796;DHT22;2924;51.458;7.046;2024-03-02T05:02:18;7.40;99.90
5796;DHT22;2924;51.458;7.046;2024-03-02T05:04:43;7.40;99.90
5796;DHT22;2924;51.458;7.046;2024-03-02T05:07:09;7.60;99.90
5796;DHT22;2924;51.458;7.046;2024-03-02T05:09:35;7.50;99.90
5796;DHT22;2924;51.458;7.046;2024-03-02T05:12:00;7.40;99.90
5796;DHT22;2924;51.458;7.046;2024-03-02T05:14:48;7.30;99.90
5796;DHT22;2924;51.458;7.046;2024-03-02T05:17:14;7.30;99.90
5796;DHT22;2924;51.458;7.046;2024-03-02T05:19:39;7.30;99.90
5796;DHT22;2924;51.458;7.046;2024-03-02T05:22:05;7.20;99.90
5796;DHT22;2924;51.458;7.046;2024-03-02T05:24:31;7.30;99.90
5796;DHT22;2924;51.458;7.046;2024-03-02T05:26:56;7.30;99.90
5796;DHT22;2924;51.458;7.046;2024-03-02T05:29:22;7.20;99.90
5796;DHT22;2924;51.458;7.046;2024-03-02T05:31:48;7.20;99.90
5796;DHT22;2924;51.458;7.046;2024-03-02T05:34:14;7.20;99.90
5796;DHT22;2924;51.458;7.046;2024-03-02T05:36:39;7.20;99.90
5796;DHT22;2924;51.458;7.046;2024-03-02T05:39:05;7.20;99.90
5796;DHT22;2924;51.458;7.046;2024-03-02T05:41:34;7.20;99.90
5796;DHT22;2924;51.458;7.046;2024-03-02T05:44:00;7.20;99.90
5796;DHT22;2924;51.458;7.046;2024-03-02T05:46:25;7.10;99.90
5796;DHT22;2924;51.458;7.046;2024-03-02T05:48:51;7.10;99.90
5796;DHT22;2924;51.458;7.046;2024-03-02T05:51:17;7.00;99.90
5796;DHT22;2924;51.458;7.046;2024-03-02T05:53:43;6.90;99.90
5796;DHT22;2924;51.458;7.046;2024-03-02T05:56:08;6.70;99.90
5796;DHT22;2924;51.458;7.046;2024-03-02T05:58:34;6.70;99.90
5796;DHT22;2924;51.458;7.046;2024-03-02T06:01:05;6.60;99.90
5796;DHT22;2924;51.458;7.046;2024-03-02T06:03:31;6.60;99.90
5796;DHT22;2924;51.458;7.046;2024-03-02T06:05:56;6.50;99.90
5796;DHT22;2924;51.458;7.046;2024-03-02T06:08:22;6.50;99.90
5796;DHT22;2924;51.458;7.046;2024-03-02T06:10:47;6.60;99.90
5796;DHT22;2924;51.458;7.046;2024-03-02T06:13:13;6.40;99.90
5796;DHT22;2924;51.458;7.046;2024-03-02T06:15:39;6.40;99.90
5796;DHT22;2924;51.458;7.046;2024-03-02T06:18:04;6.30;99.90
5796;DHT22;2924;51.458;7.046;2024-03-02T06:20:32;6.40;99.90
5796;DHT22;2924;51.458;7.046;2024-03-02T06:22:57;6.30;99.90
5796;DHT22;2924;51.458;7.046;2024-03-02T06:25:23;6.30;99.90
5796;DHT22;2924;51.458;7.046;2024-03-02T06:27:48;6.20;99.90
5796;DHT22;2924;51.458;7.046;2024-03-02T06:30:14;6.30;99.90
5796;DHT22;2924;51.458;7.046;2024-03-02T06:32:40;6.30;99.90
5796;DHT22;2924;51.458;7.046;2024-03-02T06:35:05;6.30;99.90
5796;DHT22;2924;51.458;7.046;2024-03-02T06:37:33;6.20;99.90
5796;DHT22;2924;51.458;7.046;2024-03-02T06:39:59;6.30;99.90
5796;DHT22;2924;51.458;7.046;2024-03-02T06:42:25;6.40;99.90
5796;DHT22;2924;51.458;7.046;2024-03-02T06:44:50;6.40;99.90
5796;DHT22;2924;51.458;7.046;2024-03-02T06:47:16;6.50;99.90
5796;DHT22;2924;51.458;7.046;2024-03-02T06:49:42;6.60;99.90
5796;DHT22;2924;51.458;7.046;2024-03-02T06:52:07;6.90;99.90
5796;DHT22;2924;51.458;7.046;2024-03-02T06:54:33;7.00;99.90
5796;DHT22;2924;51.458;7.046;2024-03-02T06:57:00;6.90;99.90
5796;DHT22;2924;51.458;7.046;2024-03-02T06:59:25;6.80;99.90
5796;DHT22;2924;51.458;7.046;2024-03-02T07:01:51;6.80;99.90
5796;DHT22;2924;51.458;7.046;2024-03-02T07:04:16;7.00;99.90
5796;DHT22;2924;51.458;7.046;2024-03-02T07:06:42;7.40;99.90
5796;DHT22;2924;51.458;7.046;2024-03-02T07:09:08;7.80;99.90
5796;DHT22;2924;51.458;7.046;2024-03-02T07:11:36;8.20;99.90
5796;DHT22;2924;51.458;7.046;2024-03-02T07:14:02;8.30;99.90
5796;DHT22;2924;51.458;7.046;2024-03-02T07:16:27;8.20;99.90
5796;DHT22;2924;51.458;7.046;2024-03-02T07:18:55;8.10;99.90
5796;DHT22;2924;51.458;7.046;2024-03-02T07:21:22;8.10;99.90
5796;DHT22;2924;51.458;7.046;2024-03-02T07:23:48;8.10;99.90
5796;DHT22;2924;51.458;7.046;2024-03-02T07:26:14;8.40;99.90
5796;DHT22;2924;51.458;7.046;2024-03-02T07:28:46;8.80;99.90
5796;DHT22;2924;51.458;7.046;2024-03-02T07:31:13;9.50;99.90
5796;DHT22;2924;51.458;7.046;2024-03-02T07:33:38;10.10;99.90
5796;DHT22;2924;51.458;7.046;2024-03-02T07:36:04;10.40;99.90
5796;DHT22;2924;51.458;7.046;2024-03-02T07:38:30;10.80;99.90
5796;DHT22;2924;51.458;7.046;2024-03-02T07:40:56;11.00;99.90
5796;DHT22;2924;51.458;7.046;2024-03-02T07:43:22;11.00;99.90
5796;DHT22;2924;51.458;7.046;2024-03-02T07:45:48;10.80;99.90
5796;DHT22;2924;51.458;7.046;2024-03-02T07:48:14;10.70;99.90
5796;DHT22;2924;51.458;7.046;2024-03-02T07:50:40;10.90;99.90
5796;DHT22;2924;51.458;7.046;2024-03-02T07:53:06;10.80;99.90
5796;DHT22;2924;51.458;7.046;2024-03-02T07:55:33;10.80;99.90
5796;DHT22;2924;51.458;7.046;2024-03-02T07:57:58;11.00;99.90
5796;DHT22;2924;51.458;7.046;2024-03-02T08:00:25;11.20;99.90
5796;DHT22;2924;51.458;7.046;2024-03-02T08:02:51;11.30;99.90
5796;DHT22;2924;51.458;7.046;2024-03-02T08:05:17;11.20;99.90
5796;DHT22;2924;51.458;7.046;2024-03-02T08:07:45;11.20;99.90
5796;DHT22;2924;51.458;7.046;2024-03-02T08:10:11;11.20;99.90
5796;DHT22;2924;51.458;7.046;2024-03-02T08:12:37;11.00;99.90
5796;DHT22;2924;51.458;7.046;2024-03-02T08:15:03;11.00;99.90
5796;DHT22;2924;51.458;7.046;2024-03-02T08:17:29;11.10;99.90
5796;DHT22;2924;51.458;7.046;2024-03-02T08:19:55;11.20;99.90
5796;DHT22;2924;51.458;7.046;2024-03-02T08:22:21;10.90;99.90
5796;DHT22;2924;51.458;7.046;2024-03-02T08:24:46;10.50;99.90
5796;DHT22;2924;51.458;7.046;2024-03-02T08:27:12;10.10;99.90
5796;DHT22;2924;51.458;7.046;2024-03-02T08:29:38;9.80;99.90
5796;DHT22;2924;51.458;7.046;2024-03-02T08:32:04;9.90;99.90
5796;DHT22;2924;51.458;7.046;2024-03-02T08:34:30;10.50;99.90
5796;DHT22;2924;51.458;7.046;2024-03-02T08:36:55;11.00;99.90
5796;DHT22;2924;51.458;7.046;2024-03-02T08:39:21;11.30;99.90
5796;DHT22;2924;51.458;7.046;2024-03-02T08:41:47;11.30;99.90
5796;DHT22;2924;51.458;7.046;2024-03-02T08:44:14;11.20;99.90
5796;DHT22;2924;51.458;7.046;2024-03-02T08:46:40;11.70;99.90
5796;DHT22;2924;51.458;7.046;2024-03-02T08:49:06;11.90;99.90
5796;DHT22;2924;51.458;7.046;2024-03-02T08:51:32;12.20;99.90
5796;DHT22;2924;51.458;7.046;2024-03-02T08:53:58;12.40;99.90
5796;DHT22;2924;51.458;7.046;2024-03-02T08:56:24;12.50;99.90
5796;DHT22;2924;51.458;7.046;2024-03-02T08:58:51;12.60;99.90
5796;DHT22;2924;51.458;7.046;2024-03-02T09:01:17;12.70;99.90
5796;DHT22;2924;51.458;7.046;2024-03-02T09:03:43;13.00;99.90
5796;DHT22;2924;51.458;7.046;2024-03-02T09:06:12;13.10;99.90
5796;DHT22;2924;51.458;7.046;2024-03-02T09:08:39;13.30;99.90
5796;DHT22;2924;51.458;7.046;2024-03-02T09:11:05;13.60;99.90
5796;DHT22;2924;51.458;7.046;2024-03-02T09:13:32;13.80;99.90
5796;DHT22;2924;51.458;7.046;2024-03-02T09:15:58;14.00;98.30
5796;DHT22;2924;51.458;7.046;2024-03-02T09:18:24;13.90;98.70
5796;DHT22;2924;51.458;7.046;2024-03-02T09:20:49;13.90;97.80
5796;DHT22;2924;51.458;7.046;2024-03-02T09:23:15;13.80;97.80
5796;DHT22;2924;51.458;7.046;2024-03-02T09:25:41;13.10;99.90
5796;DHT22;2924;51.458;7.046;2024-03-02T09:28:06;13.20;99.90
5796;DHT22;2924;51.458;7.046;2024-03-02T09:30:33;13.30;99.90
5796;DHT22;2924;51.458;7.046;2024-03-02T09:32:58;13.40;99.80
5796;DHT22;2924;51.458;7.046;2024-03-02T09:35:24;13.30;99.90
5796;DHT22;2924;51.458;7.046;2024-03-02T09:37:49;13.60;99.90
5796;DHT22;2924;51.458;7.046;2024-03-02T09:40:15;13.70;98.00
5796;DHT22;2924;51.458;7.046;2024-03-02T09:42:42;13.20;99.50
5796;DHT22;2924;51.458;7.046;2024-03-02T09:45:09;12.90;99.90
5796;DHT22;2924;51.458;7.046;2024-03-02T09:47:35;12.80;99.90
5796;DHT22;2924;51.458;7.046;2024-03-02T09:50:00;13.10;99.90
5796;DHT22;2924;51.458;7.046;2024-03-02T09:52:26;13.00;99.90
5796;DHT22;2924;51.458;7.046;2024-03-02T09:54:52;13.10;99.90
5796;DHT22;2924;51.458;7.046;2024-03-02T09:57:18;13.30;99.80
5796;DHT22;2924;51.458;7.046;2024-03-02T09:59:44;13.70;98.60
5796;DHT22;2924;51.458;7.046;2024-03-02T10:02:11;14.20;95.70
5796;DHT22;2924;51.458;7.046;2024-03-02T10:04:36;14.20;96.10
5796;DHT22;2924;51.458;7.046;2024-03-02T10:07:16;14.10;95.70
5796;DHT22;2924;51.458;7.046;2024-03-02T10:09:43;13.80;96.90
5796;DHT22;2924;51.458;7.046;2024-03-02T10:12:10;13.90;96.40
5796;DHT22;2924;51.458;7.046;2024-03-02T10:14:40;14.10;97.60
5796;DHT22;2924;51.458;7.046;2024-03-02T10:17:13;14.40;95.70
5796;DHT22;2924;51.458;7.046;2024-03-02T10:19:39;14.60;93.60
5796;DHT22;2924;51.458;7.046;2024-03-02T10:22:07;14.50;93.70
5796;DHT22;2924;51.458;7.046;2024-03-02T10:24:41;14.30;93.90
5796;DHT22;2924;51.458;7.046;2024-03-02T10:27:15;14.40;94.10
5796;DHT22;2924;51.458;7.046;2024-03-02T10:29:41;14.50;91.90
5796;DHT22;2924;51.458;7.046;2024-03-02T10:32:10;14.50;92.70
5796;DHT22;2924;51.458;7.046;2024-03-02T10:34:43;14.50;93.10
5796;DHT22;2924;51.458;7.046;2024-03-02T10:37:10;14.60;92.70
5796;DHT22;2924;51.458;7.046;2024-03-02T10:39:36;14.80;93.20
5796;DHT22;2924;51.458;7.046;2024-03-02T10:42:03;14.90;92.10
5796;DHT22;2924;51.458;7.046;2024-03-02T10:44:30;15.10;92.40
5796;DHT22;2924;51.458;7.046;2024-03-02T10:46:56;15.60;90.10
5796;DHT22;2924;51.458;7.046;2024-03-02T10:49:26;15.40;90.10
5796;DHT22;2924;51.458;7.046;2024-03-02T10:51:53;15.20;89.00
5796;DHT22;2924;51.458;7.046;2024-03-02T10:54:18;15.20;90.00
5796;DHT22;2924;51.458;7.046;2024-03-02T10:56:46;15.20;90.20
5796;DHT22;2924;51.458;7.046;2024-03-02T10:59:28;15.10;90.30
5796;DHT22;2924;51.458;7.046;2024-03-02T11:01:58;15.20;90.30
5796;DHT22;2924;51.458;7.046;2024-03-02T11:04:26;14.90;91.10
5796;DHT22;2924;51.458;7.046;2024-03-02T11:06:54;14.90;91.10
5796;DHT22;2924;51.458;7.046;2024-03-02T11:09:26;14.80;91.50
5796;DHT22;2924;51.458;7.046;2024-03-02T11:12:12;14.60;92.50
5796;DHT22;2924;51.458;7.046;2024-03-02T11:14:41;14.50;92.00
5796;DHT22;2924;51.458;7.046;2024-03-02T11:17:10;14.50;91.90
5796;DHT22;2924;51.458;7.046;2024-03-02T11:19:38;14.50;92.10
5796;DHT22;2924;51.458;7.046;2024-03-02T11:22:04;14.50;92.30
5796;DHT22;2924;51.458;7.046;2024-03-02T11:24:31;14.70;91.10
5796;DHT22;2924;51.458;7.046;2024-03-02T11:27:04;14.80;91.00
5796;DHT22;2924;51.458;7.046;2024-03-02T11:32:16;15.10;90.70
5796;DHT22;2924;51.458;7.046;2024-03-02T11:34:45;15.40;85.70
5796;DHT22;2924;51.458;7.046;2024-03-02T11:37:16;15.40;84.80
5796;DHT22;2924;51.458;7.046;2024-03-02T11:39:46;15.30;85.10
5796;DHT22;2924;51.458;7.046;2024-03-02T11:42:12;15.60;84.80
5796;DHT22;2924;51.458;7.046;2024-03-02T11:44:46;15.60;84.40
5796;DHT22;2924;51.458;7.046;2024-03-02T11:47:13;15.70;83.40
5796;DHT22;2924;51.458;7.046;2024-03-02T11:49:50;16.00;84.00
5796;DHT22;2924;51.458;7.046;2024-03-02T11:52:17;16.40;81.00
5796;DHT22;2924;51.458;7.046;2024-03-02T11:54:45;16.10;78.70
5796;DHT22;2924;51.458;7.046;2024-03-02T11:57:21;15.70;81.90
5796;DHT22;2924;51.458;7.046;2024-03-02T11:59:48;15.70;83.00
5796;DHT22;2924;51.458;7.046;2024-03-02T12:02:19;15.30;83.20
5796;DHT22;2924;51.458;7.046;2024-03-02T12:04:46;15.10;86.60
5796;DHT22;2924;51.458;7.046;2024-03-02T12:07:21;14.90;84.30
5796;DHT22;2924;51.458;7.046;2024-03-02T12:09:48;15.10;85.00
5796;DHT22;2924;51.458;7.046;2024-03-02T12:12:13;15.00;86.00
5796;DHT22;2924;51.458;7.046;2024-03-02T12:14:52;14.80;87.00
5796;DHT22;2924;51.458;7.046;2024-03-02T12:17:20;14.90;88.80
5796;DHT22;2924;51.458;7.046;2024-03-02T12:19:46;14.90;88.30
5796;DHT22;2924;51.458;7.046;2024-03-02T12:22:11;14.80;88.80
5796;DHT22;2924;51.458;7.046;2024-03-02T12:24:37;14.80;90.20
5796;DHT22;2924;51.458;7.046;2024-03-02T12:27:04;14.90;90.10
5796;DHT22;2924;51.458;7.046;2024-03-02T12:29:30;14.60;90.80
5796;DHT22;2924;51.458;7.046;2024-03-02T12:31:56;14.50;91.90
5796;DHT22;2924;51.458;7.046;2024-03-02T12:34:22;14.30;92.10
5796;DHT22;2924;51.458;7.046;2024-03-02T12:36:49;14.20;93.40
5796;DHT22;2924;51.458;7.046;2024-03-02T12:39:18;14.40;92.70
5796;DHT22;2924;51.458;7.046;2024-03-02T12:41:44;14.40;92.60
5796;DHT22;2924;51.458;7.046;2024-03-02T12:44:10;14.50;92.50
5796;DHT22;2924;51.458;7.046;2024-03-02T12:46:36;14.80;91.80
5796;DHT22;2924;51.458;7.046;2024-03-02T12:49:09;14.90;90.50
5796;DHT22;2924;51.458;7.046;2024-03-02T12:51:41;15.00;89.00
5796;DHT22;2924;51.458;7.046;2024-03-02T12:54:08;14.80;89.30
5796;DHT22;2924;51.458;7.046;2024-03-02T12:56:35;14.50;90.60
5796;DHT22;2924;51.458;7.046;2024-03-02T12:59:01;14.50;91.20
5796;DHT22;2924;51.458;7.046;2024-03-02T13:01:26;14.70;91.80
5796;DHT22;2924;51.458;7.046;2024-03-02T13:03:55;14.60;91.60
5796;DHT22;2924;51.458;7.046;2024-03-02T13:06:22;14.50;92.30
5796;DHT22;2924;51.458;7.046;2024-03-02T13:08:48;14.50;92.60
5796;DHT22;2924;51.458;7.046;2024-03-02T13:11:16;14.50;93.70
5796;DHT22;2924;51.458;7.046;2024-03-02T13:13:41;14.70;93.20
5796;DHT22;2924;51.458;7.046;2024-03-02T13:16:10;14.90;92.60
5796;DHT22;2924;51.458;7.046;2024-03-02T13:18:36;14.90;92.20
5796;DHT22;2924;51.458;7.046;2024-03-02T13:21:02;14.90;92.30
5796;DHT22;2924;51.458;7.046;2024-03-02T13:23:28;14.70;92.20
5796;DHT22;2924;51.458;7.046;2024-03-02T13:25:56;14.50;93.60
5796;DHT22;2924;51.458;7.046;2024-03-02T13:28:24;14.30;94.00
5796;DHT22;2924;51.458;7.046;2024-03-02T13:30:49;14.00;95.00
5796;DHT22;2924;51.458;7.046;2024-03-02T13:33:15;13.90;96.20
5796;DHT22;2924;51.458;7.046;2024-03-02T13:35:40;13.90;96.60
5796;DHT22;2924;51.458;7.046;2024-03-02T13:38:06;13.90;95.40
5796;DHT22;2924;51.458;7.046;2024-03-02T13:40:31;13.80;95.60
5796;DHT22;2924;51.458;7.046;2024-03-02T13:43:02;13.60;96.80
5796;DHT22;2924;51.458;7.046;2024-03-02T13:45:27;13.60;96.70
5796;DHT22;2924;51.458;7.046;2024-03-02T13:47:53;13.60;97.70
5796;DHT22;2924;51.458;7.046;2024-03-02T13:50:19;13.60;97.90
5796;DHT22;2924;51.458;7.046;2024-03-02T13:52:45;13.70;97.40
5796;DHT22;2924;51.458;7.046;2024-03-02T13:55:10;13.80;97.40
5796;DHT22;2924;51.458;7.046;2024-03-02T13:57:36;13.90;97.60
5796;DHT22;2924;51.458;7.046;2024-03-02T14:00:02;14.10;96.50
5796;DHT22;2924;51.458;7.046;2024-03-02T14:02:28;14.00;95.30
5796;DHT22;2924;51.458;7.046;2024-03-02T14:04:54;13.90;96.10
5796;DHT22;2924;51.458;7.046;2024-03-02T14:07:20;13.90;96.50
5796;DHT22;2924;51.458;7.046;2024-03-02T14:09:46;14.00;95.60
5796;DHT22;2924;51.458;7.046;2024-03-02T14:12:12;14.00;95.40
5796;DHT22;2924;51.458;7.046;2024-03-02T14:14:38;14.00;95.60
5796;DHT22;2924;51.458;7.046;2024-03-02T14:17:04;14.00;95.50
5796;DHT22;2924;51.458;7.046;2024-03-02T14:19:32;14.00;96.30
5796;DHT22;2924;51.458;7.046;2024-03-02T14:21:58;14.00;95.20
5796;DHT22;2924;51.458;7.046;2024-03-02T14:24:23;14.00;95.00
5796;DHT22;2924;51.458;7.046;2024-03-02T14:26:51;14.00;95.10
5796;DHT22;2924;51.458;7.046;2024-03-02T14:29:17;14.00;95.80
5796;DHT22;2924;51.458;7.046;2024-03-02T14:31:43;14.00;96.60
5796;DHT22;2924;51.458;7.046;2024-03-02T14:34:09;14.10;96.10
5796;DHT22;2924;51.458;7.046;2024-03-02T14:36:35;14.40;93.80
5796;DHT22;2924;51.458;7.046;2024-03-02T14:39:01;14.60;92.60
5796;DHT22;2924;51.458;7.046;2024-03-02T14:41:26;14.70;92.10
5796;DHT22;2924;51.458;7.046;2024-03-02T14:43:52;14.90;91.70
5796;DHT22;2924;51.458;7.046;2024-03-02T14:46:18;15.10;91.80
5796;DHT22;2924;51.458;7.046;2024-03-02T14:48:44;15.40;90.40
5796;DHT22;2924;51.458;7.046;2024-03-02T14:51:10;15.50;89.10
5796;DHT22;2924;51.458;7.046;2024-03-02T14:53:36;15.70;88.50
5796;DHT22;2924;51.458;7.046;2024-03-02T14:56:04;15.80;86.60
5796;DHT22;2924;51.458;7.046;2024-03-02T14:58:29;15.60;87.00
5796;DHT22;2924;51.458;7.046;2024-03-02T15:00:55;15.50;89.20
5796;DHT22;2924;51.458;7.046;2024-03-02T15:03:21;15.40;89.00
5796;DHT22;2924;51.458;7.046;2024-03-02T15:05:46;15.10;90.50
5796;DHT22;2924;51.458;7.046;2024-03-02T15:08:13;14.80;91.50
5796;DHT22;2924;51.458;7.046;2024-03-02T15:10:38;14.70;92.90
5796;DHT22;2924;51.458;7.046;2024-03-02T15:13:04;14.50;93.40
5796;DHT22;2924;51.458;7.046;2024-03-02T15:15:30;14.50;93.20
5796;DHT22;2924;51.458;7.046;2024-03-02T15:17:55;14.40;94.60
5796;DHT22;2924;51.458;7.046;2024-03-02T15:20:21;14.20;94.60
5796;DHT22;2924;51.458;7.046;2024-03-02T15:22:47;14.10;95.80
5796;DHT22;2924;51.458;7.046;2024-03-02T15:25:12;14.00;96.10
5796;DHT22;2924;51.458;7.046;2024-03-02T15:27:38;14.00;97.10
5796;DHT22;2924;51.458;7.046;2024-03-02T15:30:06;13.90;98.20
5796;DHT22;2924;51.458;7.046;2024-03-02T15:32:32;13.90;98.60
5796;DHT22;2924;51.458;7.046;2024-03-02T15:34:59;13.80;99.30
5796;DHT22;2924;51.458;7.046;2024-03-02T15:37:25;13.80;99.40
5796;DHT22;2924;51.458;7.046;2024-03-02T15:39:51;13.80;99.90
5796;DHT22;2924;51.458;7.046;2024-03-02T15:42:16;13.70;99.90
5796;DHT22;2924;51.458;7.046;2024-03-02T15:44:43;13.60;99.90
5796;DHT22;2924;51.458;7.046;2024-03-02T15:47:09;13.50;99.90
5796;DHT22;2924;51.458;7.046;2024-03-02T15:49:34;13.40;99.90
5796;DHT22;2924;51.458;7.046;2024-03-02T15:52:00;13.50;99.90
5796;DHT22;2924;51.458;7.046;2024-03-02T15:54:26;13.40;99.90
5796;DHT22;2924;51.458;7.046;2024-03-02T15:56:52;13.30;99.90
5796;DHT22;2924;51.458;7.046;2024-03-02T15:59:18;13.30;99.90
5796;DHT22;2924;51.458;7.046;2024-03-02T16:01:44;13.30;99.90
5796;DHT22;2924;51.458;7.046;2024-03-02T16:04:09;13.40;99.90
5796;DHT22;2924;51.458;7.046;2024-03-02T16:06:35;13.40;99.90
5796;DHT22;2924;51.458;7.046;2024-03-02T16:09:01;13.40;99.90
5796;DHT22;2924;51.458;7.046;2024-03-02T16:11:26;13.30;99.90